createdAt,value
2018-07-15T00:01:31.780Z,19.70
2018-07-15T00:03:59.208Z,19.70
2018-07-15T00:06:26.623Z,19.70
2018-07-15T00:08:54.003Z,19.60
2018-07-15T00:11:21.431Z,19.60
2018-07-15T00:13:48.855Z,19.50
2018-07-15T00:16:16.300Z,19.50
2018-07-15T00:18:43.703Z,19.50
2018-07-15T00:21:11.102Z,19.50
2018-07-15T00:23:38.502Z,19.50
2018-07-15T00:26:05.949Z,19.40
2018-07-15T00:28:33.335Z,19.40
2018-07-15T00:33:28.347Z,19.30
2018-07-15T00:35:55.880Z,19.30
2018-07-15T00:38:23.268Z,19.20
2018-07-15T00:40:50.752Z,19.10
2018-07-15T00:43:18.143Z,19.10
2018-07-15T00:45:45.551Z,19.00
2018-07-15T00:48:12.975Z,19.00
2018-07-15T00:50:40.432Z,19.00
2018-07-15T00:53:07.867Z,19.00
2018-07-15T00:55:35.288Z,19.00
2018-07-15T00:58:02.919Z,18.90
2018-07-15T01:03:03.487Z,18.90
2018-07-15T01:05:30.915Z,18.80
2018-07-15T01:07:58.324Z,18.80
2018-07-15T01:10:25.719Z,18.80
2018-07-15T01:12:53.110Z,18.80
2018-07-15T01:15:21.519Z,18.70
2018-07-15T01:17:50.009Z,18.70
2018-07-15T01:20:18.501Z,18.70
2018-07-15T01:22:45.935Z,18.60
2018-07-15T01:25:13.391Z,18.50
2018-07-15T01:27:41.853Z,18.50
2018-07-15T01:30:10.370Z,18.40
2018-07-15T01:32:37.755Z,18.40
2018-07-15T01:35:05.184Z,18.40
2018-07-15T01:37:32.571Z,18.30
2018-07-15T01:39:59.965Z,18.20
2018-07-15T01:42:27.369Z,18.20
2018-07-15T01:44:54.824Z,18.20
2018-07-15T01:47:22.224Z,18.20
2018-07-15T01:49:49.628Z,18.10
2018-07-15T01:52:17.027Z,18.10
2018-07-15T01:54:44.519Z,18.00
2018-07-15T01:57:12.077Z,18.00
2018-07-15T01:59:39.471Z,18.00
2018-07-15T02:02:06.902Z,18.00
2018-07-15T02:04:34.300Z,18.00
2018-07-15T02:07:01.675Z,18.00
2018-07-15T02:09:29.043Z,17.90
2018-07-15T02:11:56.569Z,17.90
2018-07-15T02:14:24.063Z,17.80
2018-07-15T02:16:51.568Z,17.80
2018-07-15T02:19:18.931Z,17.80
2018-07-15T02:21:46.284Z,17.70
2018-07-15T02:24:13.708Z,17.80
2018-07-15T02:26:41.102Z,17.70
2018-07-15T02:29:08.572Z,17.70
2018-07-15T02:34:03.509Z,17.60
2018-07-15T02:36:30.909Z,17.60
2018-07-15T02:38:58.340Z,17.70
2018-07-15T02:41:25.791Z,17.60
2018-07-15T02:43:53.340Z,17.50
2018-07-15T02:48:48.987Z,17.50
2018-07-15T02:51:16.388Z,17.40
2018-07-15T02:56:12.265Z,17.40
2018-07-15T02:58:39.684Z,17.30
2018-07-15T03:01:07.438Z,17.30
2018-07-15T03:03:34.835Z,17.30
2018-07-15T03:06:02.320Z,17.20
2018-07-15T03:08:29.692Z,17.10
2018-07-15T03:10:57.084Z,17.20
2018-07-15T03:13:24.447Z,17.20
2018-07-15T03:18:19.263Z,17.20
2018-07-15T03:23:14.103Z,17.10
2018-07-15T03:25:41.609Z,17.00
2018-07-15T03:28:09.051Z,17.00
2018-07-15T03:30:36.447Z,17.00
2018-07-15T03:33:03.896Z,17.00
2018-07-15T03:35:31.484Z,17.00
2018-07-15T03:37:58.839Z,17.00
2018-07-15T03:42:53.739Z,17.00
2018-07-15T03:45:21.119Z,17.00
2018-07-15T03:47:48.475Z,17.00
2018-07-15T03:50:15.788Z,17.00
2018-07-15T03:52:43.139Z,16.90
2018-07-15T03:55:10.633Z,16.90
2018-07-15T03:57:38.028Z,16.90
2018-07-15T04:00:05.465Z,16.90
2018-07-15T04:02:32.862Z,16.80
2018-07-15T04:05:00.316Z,16.80
2018-07-15T04:07:27.707Z,16.80
2018-07-15T04:09:55.104Z,16.90
2018-07-15T04:12:22.607Z,16.90
2018-07-15T04:14:50.020Z,16.90
2018-07-15T04:17:17.440Z,16.90
2018-07-15T04:19:44.912Z,16.90
2018-07-15T04:24:39.742Z,17.00
2018-07-15T04:27:07.135Z,17.00
2018-07-15T04:29:34.535Z,17.10
2018-07-15T04:32:01.980Z,17.10
2018-07-15T04:34:29.519Z,17.10
2018-07-15T04:36:56.968Z,17.10
2018-07-15T04:39:24.364Z,17.20
2018-07-15T04:41:51.776Z,17.20
2018-07-15T04:44:19.260Z,17.30
2018-07-15T04:46:46.660Z,17.30
2018-07-15T04:49:14.067Z,17.40
2018-07-15T04:51:41.451Z,17.40
2018-07-15T04:54:08.896Z,17.50
2018-07-15T04:56:36.235Z,17.50
2018-07-15T04:59:03.720Z,17.60
2018-07-15T05:01:31.084Z,17.60
2018-07-15T05:03:58.427Z,17.70
2018-07-15T05:06:25.796Z,17.90
2018-07-15T05:08:53.123Z,18.30
2018-07-15T05:13:48.168Z,20.00
2018-07-15T05:16:15.611Z,21.00
2018-07-15T05:18:43.148Z,21.70
2018-07-15T05:21:10.480Z,22.20
2018-07-15T05:23:37.847Z,22.80
2018-07-15T05:26:05.483Z,23.40
2018-07-15T05:28:32.828Z,24.00
2018-07-15T05:31:00.172Z,24.40
2018-07-15T05:33:27.520Z,24.70
2018-07-15T05:35:54.926Z,25.00
2018-07-15T05:38:22.260Z,25.10
2018-07-15T05:40:49.639Z,25.00
2018-07-15T05:43:17.007Z,25.00
2018-07-15T05:45:44.362Z,24.80
2018-07-15T05:50:39.112Z,24.00
2018-07-15T05:53:06.501Z,23.60
2018-07-15T05:55:33.930Z,23.10
2018-07-15T05:58:01.455Z,22.60
2018-07-15T06:00:28.842Z,22.10
2018-07-15T06:02:56.352Z,21.80
2018-07-15T06:05:23.837Z,21.40
2018-07-15T06:10:18.654Z,21.00
2018-07-15T06:12:46.077Z,20.80
2018-07-15T06:15:13.667Z,20.70
2018-07-15T06:17:41.819Z,20.50
2018-07-15T06:20:09.860Z,20.50
2018-07-15T06:22:37.487Z,20.50
2018-07-15T06:25:04.971Z,20.50
2018-07-15T06:27:32.367Z,20.40
2018-07-15T06:32:27.238Z,20.20
2018-07-15T06:34:54.695Z,20.10
2018-07-15T06:37:22.095Z,20.10
2018-07-15T06:39:49.505Z,20.10
2018-07-15T06:42:17.020Z,20.20
2018-07-15T06:44:44.492Z,20.20
2018-07-15T06:47:12.003Z,20.20
2018-07-15T06:49:39.475Z,20.30
2018-07-15T06:52:06.890Z,20.30
2018-07-15T06:54:34.292Z,20.40
2018-07-15T06:57:01.701Z,20.50
2018-07-15T06:59:29.152Z,20.50
2018-07-15T07:01:56.648Z,20.70
2018-07-15T07:04:24.080Z,20.70
2018-07-15T07:06:51.487Z,20.80
2018-07-15T07:09:18.907Z,20.90
2018-07-15T07:11:46.367Z,20.90
2018-07-15T07:14:13.837Z,20.90
2018-07-15T07:16:41.227Z,21.00
2018-07-15T07:21:36.064Z,21.10
2018-07-15T07:24:03.497Z,21.20
2018-07-15T07:26:30.895Z,21.30
2018-07-15T07:28:58.467Z,21.30
2018-07-15T07:31:25.803Z,21.30
2018-07-15T07:33:53.227Z,21.30
2018-07-15T07:36:20.604Z,21.40
2018-07-15T07:38:47.996Z,21.50
2018-07-15T07:46:10.316Z,22.00
2018-07-15T07:48:37.731Z,22.10
2018-07-15T07:51:05.202Z,22.20
2018-07-15T07:53:32.618Z,22.20
2018-07-15T07:56:00.033Z,22.30
2018-07-15T07:58:27.465Z,22.30
2018-07-15T08:00:54.889Z,22.50
2018-07-15T08:03:22.405Z,22.60
2018-07-15T08:05:49.905Z,22.70
2018-07-15T08:08:17.427Z,22.70
2018-07-15T08:10:44.962Z,22.80
2018-07-15T08:13:12.468Z,22.80
2018-07-15T08:15:39.912Z,22.90
2018-07-15T08:18:07.365Z,23.00
2018-07-15T08:23:03.219Z,22.90
2018-07-15T08:25:30.648Z,22.80
2018-07-15T08:27:58.039Z,22.80
2018-07-15T08:30:36.929Z,22.70
2018-07-15T08:33:04.388Z,22.70
2018-07-15T08:35:31.803Z,22.80
2018-07-15T08:37:59.355Z,22.80
2018-07-15T08:40:26.755Z,22.80
2018-07-15T08:42:54.155Z,22.90
2018-07-15T08:47:49.107Z,23.10
2018-07-15T08:50:16.548Z,23.10
2018-07-15T08:52:43.963Z,23.10
2018-07-15T08:57:38.937Z,23.20
2018-07-15T09:00:06.428Z,23.20
2018-07-15T09:02:33.814Z,23.30
2018-07-15T09:05:01.263Z,23.20
2018-07-15T09:07:28.643Z,23.20
2018-07-15T09:09:56.175Z,23.30
2018-07-15T09:12:23.611Z,23.30
2018-07-15T09:17:18.478Z,23.50
2018-07-15T09:19:45.886Z,23.60
2018-07-15T09:22:13.308Z,23.70
2018-07-15T09:24:40.777Z,23.60
2018-07-15T09:27:08.205Z,23.70
2018-07-15T09:29:35.736Z,23.70
2018-07-15T09:32:03.136Z,23.70
2018-07-15T09:34:30.513Z,23.80
2018-07-15T09:36:57.944Z,24.00
2018-07-15T09:39:25.340Z,24.10
2018-07-15T09:41:52.764Z,24.10
2018-07-15T09:44:20.153Z,24.20
2018-07-15T09:46:47.659Z,24.20
2018-07-15T09:49:15.223Z,24.20
2018-07-15T09:51:42.647Z,24.20
2018-07-15T09:56:37.456Z,24.40
2018-07-15T10:01:32.364Z,24.70
2018-07-15T10:03:59.936Z,24.90
2018-07-15T10:06:27.499Z,25.20
2018-07-15T10:08:54.923Z,25.30
2018-07-15T10:11:22.556Z,25.50
2018-07-15T10:13:49.977Z,25.60
2018-07-15T10:16:17.409Z,25.70
2018-07-15T10:18:44.812Z,26.00
2018-07-15T10:21:12.257Z,26.30
2018-07-15T10:26:07.252Z,26.90
2018-07-15T10:28:34.739Z,27.00
2018-07-15T10:31:02.111Z,27.20
2018-07-15T10:33:29.562Z,27.60
2018-07-15T10:38:24.440Z,27.60
2018-07-15T10:40:51.840Z,27.60
2018-07-15T10:43:19.260Z,27.70
2018-07-15T10:45:46.675Z,28.00
2018-07-15T10:48:14.087Z,28.30
2018-07-15T10:50:41.483Z,28.40
2018-07-15T10:53:08.912Z,28.30
2018-07-15T10:55:36.331Z,28.40
2018-07-15T10:58:03.992Z,28.50
2018-07-15T11:00:31.471Z,28.50
2018-07-15T11:02:58.887Z,28.30
2018-07-15T11:05:26.331Z,28.40
2018-07-15T11:07:53.727Z,28.60
2018-07-15T11:10:21.279Z,29.00
2018-07-15T11:12:48.763Z,29.10
2018-07-15T11:15:16.228Z,29.20
2018-07-15T11:17:43.647Z,29.20
2018-07-15T11:20:11.044Z,29.30
2018-07-15T11:22:38.467Z,29.50
2018-07-15T11:25:05.892Z,29.40
2018-07-15T11:27:33.299Z,29.50
2018-07-15T11:30:00.692Z,29.60
2018-07-15T11:32:28.074Z,29.60
2018-07-15T11:34:55.491Z,29.50
2018-07-15T11:37:23.984Z,29.60
2018-07-15T11:39:51.388Z,29.60
2018-07-15T11:44:46.219Z,30.00
2018-07-15T11:47:13.692Z,30.20
2018-07-15T11:49:41.119Z,30.20
2018-07-15T11:52:08.492Z,30.10
2018-07-15T11:54:36.003Z,30.10
2018-07-15T11:57:03.388Z,29.90
2018-07-15T11:59:30.815Z,29.90
2018-07-15T12:01:58.297Z,30.00
2018-07-15T12:04:25.704Z,30.30
2018-07-15T12:06:53.080Z,30.50
2018-07-15T12:09:20.472Z,30.60
2018-07-15T12:14:16.490Z,30.90
2018-07-15T12:16:44.047Z,30.80
2018-07-15T12:19:13.557Z,30.70
2018-07-15T12:21:42.004Z,30.30
2018-07-15T12:24:09.436Z,30.20
2018-07-15T12:29:04.743Z,30.40
2018-07-15T12:31:32.183Z,30.60
2018-07-15T12:33:59.692Z,30.50
2018-07-15T12:36:27.129Z,30.40
2018-07-15T12:41:21.955Z,30.40
2018-07-15T12:43:50.482Z,30.50
2018-07-15T12:46:17.897Z,30.60
2018-07-15T12:48:45.276Z,30.50
2018-07-15T12:51:14.812Z,30.40
2018-07-15T12:53:42.248Z,30.30
2018-07-15T12:58:37.596Z,30.10
2018-07-15T13:01:05.269Z,30.20
2018-07-15T13:03:32.684Z,30.30
2018-07-15T13:06:00.111Z,30.40
2018-07-15T13:08:27.603Z,30.40
2018-07-15T13:10:56.120Z,30.70
2018-07-15T13:13:23.671Z,30.90
2018-07-15T13:15:51.225Z,30.90
2018-07-15T13:18:18.716Z,31.20
2018-07-15T13:20:46.236Z,31.20
2018-07-15T13:23:13.656Z,31.10
2018-07-15T13:25:41.063Z,30.80
2018-07-15T13:28:08.460Z,30.60
2018-07-15T13:30:36.061Z,30.60
2018-07-15T13:33:03.485Z,30.60
2018-07-15T13:35:32.941Z,30.70
2018-07-15T13:38:01.412Z,30.70
2018-07-15T13:40:28.856Z,30.90
2018-07-15T13:42:56.251Z,30.90
2018-07-15T13:45:23.747Z,30.90
2018-07-15T13:47:51.255Z,31.00
2018-07-15T13:50:18.676Z,31.20
2018-07-15T13:52:46.086Z,31.20
2018-07-15T13:55:13.511Z,31.30
2018-07-15T13:57:40.947Z,31.30
2018-07-15T14:00:08.972Z,31.20
2018-07-15T14:02:36.620Z,31.10
2018-07-15T14:05:04.432Z,31.10
2018-07-15T14:07:31.845Z,31.00
2018-07-15T14:09:59.277Z,30.90
2018-07-15T14:12:26.685Z,30.80
2018-07-15T14:14:54.188Z,30.90
2018-07-15T14:17:21.700Z,30.90
2018-07-15T14:22:18.564Z,30.60
2018-07-15T14:24:45.968Z,30.70
2018-07-15T14:27:13.414Z,30.70
2018-07-15T14:29:40.817Z,30.70
2018-07-15T14:32:08.360Z,30.60
2018-07-15T14:34:35.760Z,30.50
2018-07-15T14:37:03.204Z,30.60
2018-07-15T14:39:35.287Z,30.70
2018-07-15T14:42:03.223Z,30.90
2018-07-15T14:44:30.696Z,31.00
2018-07-15T14:49:25.674Z,31.20
2018-07-15T14:51:53.187Z,31.00
2018-07-15T14:54:21.762Z,31.00
2018-07-15T14:56:49.490Z,30.90
2018-07-15T14:59:16.920Z,30.70
2018-07-15T15:01:44.387Z,30.60
2018-07-15T15:04:11.795Z,30.40
2018-07-15T15:06:39.203Z,30.20
2018-07-15T15:09:07.344Z,30.20
2018-07-15T15:11:34.783Z,30.20
2018-07-15T15:14:02.268Z,30.10
2018-07-15T15:16:29.731Z,30.10
2018-07-15T15:18:57.780Z,30.20
2018-07-15T15:23:52.608Z,30.30
2018-07-15T15:26:21.996Z,30.40
2018-07-15T15:28:53.917Z,30.40
2018-07-15T15:33:49.903Z,30.30
2018-07-15T15:36:17.337Z,30.40
2018-07-15T15:38:45.031Z,30.30
2018-07-15T15:43:40.050Z,30.30
2018-07-15T15:46:09.578Z,30.20
2018-07-15T15:48:37.035Z,30.10
2018-07-15T15:51:04.499Z,30.00
2018-07-15T15:53:31.899Z,29.90
2018-07-15T15:55:59.351Z,29.70
2018-07-15T15:58:26.849Z,29.60
2018-07-15T16:00:54.461Z,29.50
2018-07-15T16:03:22.088Z,29.20
2018-07-15T16:10:44.551Z,28.90
2018-07-15T16:13:12.005Z,28.60
2018-07-15T16:15:39.412Z,28.60
2018-07-15T16:18:06.830Z,28.50
2018-07-15T16:20:34.616Z,28.50
2018-07-15T16:25:29.919Z,28.40
2018-07-15T16:27:59.440Z,28.30
2018-07-15T16:30:26.841Z,28.30
2018-07-15T16:32:54.384Z,28.40
2018-07-15T16:35:22.096Z,28.20
2018-07-15T16:37:49.975Z,28.10
2018-07-15T16:40:17.384Z,28.10
2018-07-15T16:42:44.788Z,28.10
2018-07-15T16:45:12.211Z,28.10
2018-07-15T16:47:39.643Z,28.00
2018-07-15T16:52:34.553Z,28.10
2018-07-15T16:55:01.986Z,28.10
2018-07-15T16:57:29.439Z,28.10
2018-07-15T16:59:57.268Z,28.00
2018-07-15T17:02:24.710Z,28.10
2018-07-15T17:07:20.612Z,28.10
2018-07-15T17:09:48.099Z,28.00
2018-07-15T17:12:15.514Z,28.00
2018-07-15T17:14:43.993Z,28.00
2018-07-15T17:17:11.436Z,28.00
2018-07-15T17:19:38.820Z,28.00
2018-07-15T17:22:06.299Z,28.10
2018-07-15T17:24:37.820Z,28.00
2018-07-15T17:27:05.391Z,28.00
2018-07-15T17:29:33.695Z,27.90
2018-07-15T17:32:01.251Z,27.90
2018-07-15T17:34:28.663Z,27.90
2018-07-15T17:36:56.085Z,27.80
2018-07-15T17:39:23.509Z,27.70
2018-07-15T17:41:50.991Z,27.60
2018-07-15T17:44:18.424Z,27.60
2018-07-15T17:46:45.820Z,27.50
2018-07-15T17:49:13.331Z,27.40
2018-07-15T17:51:40.745Z,27.30
2018-07-15T17:54:08.160Z,27.30
2018-07-15T17:56:35.658Z,27.30
2018-07-15T17:59:03.105Z,27.30
2018-07-15T18:01:30.558Z,27.30
2018-07-15T18:06:25.400Z,27.10
2018-07-15T18:08:52.794Z,27.10
2018-07-15T18:11:20.212Z,27.00
2018-07-15T18:13:48.696Z,26.90
2018-07-15T18:16:16.263Z,26.90
2018-07-15T18:18:44.660Z,26.80
2018-07-15T18:21:13.125Z,26.80
2018-07-15T18:23:40.600Z,26.80
2018-07-15T18:26:08.047Z,26.70
2018-07-15T18:28:36.571Z,26.80
2018-07-15T18:31:04.111Z,26.70
2018-07-15T18:35:59.165Z,26.50
2018-07-15T18:38:26.603Z,26.50
2018-07-15T18:43:21.825Z,26.60
2018-07-15T18:45:50.430Z,26.40
2018-07-15T18:48:18.967Z,26.40
2018-07-15T18:50:46.363Z,26.30
2018-07-15T18:55:41.259Z,26.30
2018-07-15T18:58:08.754Z,26.20
2018-07-15T19:00:36.153Z,26.20
2018-07-15T19:03:03.627Z,26.10
2018-07-15T19:05:31.025Z,26.10
2018-07-15T19:07:58.451Z,26.00
2018-07-15T19:10:25.864Z,26.00
2018-07-15T19:12:53.415Z,26.00
2018-07-15T19:15:20.896Z,25.90
2018-07-15T19:17:48.279Z,25.90
2018-07-15T19:20:15.746Z,25.80
2018-07-15T19:22:43.168Z,25.80
2018-07-15T19:25:10.612Z,25.70
2018-07-15T19:27:38.060Z,25.70
2018-07-15T19:30:05.628Z,25.70
2018-07-15T19:32:33.099Z,25.50
2018-07-15T19:35:00.567Z,25.40
2018-07-15T19:37:28.037Z,25.40
2018-07-15T19:39:55.611Z,25.40
2018-07-15T19:42:23.151Z,25.30
2018-07-15T19:44:50.515Z,25.30
2018-07-15T19:47:18.005Z,25.20
2018-07-15T19:49:45.487Z,25.20
2018-07-15T19:52:14.068Z,25.10
2018-07-15T19:54:42.680Z,25.00
2018-07-15T19:57:10.123Z,24.90
2018-07-15T19:59:37.520Z,24.80
2018-07-15T20:02:05.275Z,24.70
2018-07-15T20:04:32.809Z,24.70
2018-07-15T20:07:00.228Z,24.60
2018-07-15T20:09:29.876Z,24.50
2018-07-15T20:11:57.308Z,24.40
2018-07-15T20:14:24.760Z,24.40
2018-07-15T20:16:52.324Z,24.30
2018-07-15T20:19:19.723Z,24.30
2018-07-15T20:21:47.153Z,24.20
2018-07-15T20:24:15.620Z,24.10
2018-07-15T20:26:42.831Z,24.10
2018-07-15T20:29:11.147Z,24.00
2018-07-15T20:31:38.375Z,23.90
2018-07-15T20:36:32.848Z,23.70
2018-07-15T20:39:00.136Z,23.60
2018-07-15T20:41:27.570Z,23.60
2018-07-15T20:43:55.093Z,23.50
2018-07-15T20:46:22.544Z,23.50
2018-07-15T20:48:49.945Z,23.40
2018-07-15T20:51:17.404Z,23.30
2018-07-15T20:53:44.915Z,23.30
2018-07-15T20:56:12.359Z,23.20
2018-07-15T20:58:39.748Z,23.00
2018-07-15T21:01:07.247Z,23.00
2018-07-15T21:03:34.676Z,23.00
2018-07-15T21:06:02.099Z,22.90
2018-07-15T21:10:57.052Z,22.80
2018-07-15T21:13:24.459Z,22.70
2018-07-15T21:18:19.284Z,22.70
2018-07-15T21:20:47.870Z,22.60
2018-07-15T21:23:15.300Z,22.60
2018-07-15T21:25:42.764Z,22.50
2018-07-15T21:28:10.168Z,22.40
2018-07-15T21:30:38.656Z,22.40
2018-07-15T21:33:06.084Z,22.30
2018-07-15T21:40:28.352Z,22.20
2018-07-15T21:42:55.779Z,22.20
2018-07-15T21:45:23.308Z,22.00
2018-07-15T21:47:50.715Z,22.00
2018-07-15T21:50:18.347Z,22.00
2018-07-15T21:52:45.756Z,21.90
2018-07-15T21:55:13.179Z,21.80
2018-07-15T22:00:08.838Z,21.70
2018-07-15T22:02:36.392Z,21.60
2018-07-15T22:08:44.161Z,21.50
2018-07-15T22:11:11.576Z,21.50
2018-07-15T22:13:38.840Z,21.30
2018-07-15T22:16:06.048Z,21.30
2018-07-15T22:18:33.249Z,21.20
2018-07-15T22:21:00.452Z,21.10
2018-07-15T22:23:27.664Z,21.10
2018-07-15T22:25:55.911Z,21.10
2018-07-15T22:28:23.106Z,21.00
2018-07-15T22:30:50.331Z,20.90
2018-07-15T22:33:17.590Z,20.80
2018-07-15T22:35:44.875Z,20.80
2018-07-15T22:38:12.091Z,20.80
2018-07-15T22:40:39.322Z,20.70
2018-07-15T22:43:06.552Z,20.70
2018-07-15T22:48:01.120Z,20.50
2018-07-15T22:50:29.140Z,20.50
2018-07-15T22:52:56.380Z,20.50
2018-07-15T22:55:23.675Z,20.40
2018-07-15T22:57:50.875Z,20.40
2018-07-15T23:00:18.099Z,20.30
2018-07-15T23:02:45.328Z,20.30
2018-07-15T23:05:37.439Z,20.20
2018-07-15T23:10:32.996Z,20.10
2018-07-15T23:13:00.800Z,20.00
2018-07-15T23:15:28.376Z,20.00
2018-07-15T23:17:55.803Z,20.00
2018-07-15T23:20:23.216Z,19.90
2018-07-15T23:22:50.700Z,19.90
2018-07-15T23:25:18.208Z,19.90
2018-07-15T23:27:45.707Z,19.80
2018-07-15T23:30:13.358Z,19.80
2018-07-15T23:35:08.176Z,19.70
2018-07-15T23:37:35.832Z,19.60
2018-07-15T23:40:03.342Z,19.60
2018-07-15T23:42:30.831Z,19.50
2018-07-15T23:44:58.215Z,19.50
2018-07-15T23:47:25.608Z,19.50
2018-07-15T23:49:53.044Z,19.50
2018-07-15T23:52:20.483Z,19.40
2018-07-15T23:54:47.867Z,19.30
2018-07-15T23:57:15.343Z,19.30
2018-07-15T23:59:42.803Z,19.30
